Marvel — V7OZ3 — position and weather

sailwx.info

Track history (hours):
 
Tides and Currents Weather Stations Pressure Air Temp Water Temp Dewpoint Dewpoint Depression Visibility Wind Speed Wind Dir Waves Ship Positions

Marvel

Last reported at 2014-Oct-15 11:33 UTC. Time now 2014-Oct-22 06:22 UTC.
Position N 36°42' E 122°49'.

Length 183 m; draft 9.8 m.

Type: Tanker. MMSI: 538003191.

Date/timePositionNaut miles runAvg speedWind from/ knotsBaromVisibWave heightAir tempDewpointWater temp
2014-Oct-15 11:33N 36°42' E 122°49'1010.1
2014-Oct-15 10:33N 36°52' E 122°47'1110.8
2014-Oct-15 09:33N 37°03' E 122°47'1211.6
2014-Oct-15 08:33N 37°15' E 122°47'1211.4
2014-Oct-15 07:28N 37°27' E 122°46'1112.0
2014-Oct-15 06:32N 37°36' E 122°38'1111.3
2014-Oct-15 05:33N 37°45' E 122°30'3810.9
2014-Oct-15 02:03N 38°07' E 121°50'511.1
2014-Oct-15 01:33N 38°09' E 121°44'1111.1
2014-Oct-15 00:33N 38°15' E 121°32'1110.9
2014-Oct-14 23:33N 38°22' E 121°21'15310.8
2014-Oct-14 09:20N 38°51' E 118°08'8 8.5
2014-Oct-14 08:23N 38°53' E 117°58'1011.9
2014-Oct-14 07:33N 38°57' E 117°47'  
2014-Oct-11 09:33N 38°57' E 117°45'4 3.6
2014-Oct-11 08:34N 38°56' E 117°49'9 8.9
2014-Oct-11 07:34N 38°54' E 118°00'0 0.1
2014-Oct-11 05:22N 38°54' E 118°00'0 0.0
2014-Oct-11 04:23N 38°54' E 118°00'0 0.0
2014-Oct-10 23:20N 38°54' E 118°00'2 1.3
2014-Oct-10 21:33N 38°54' E 118°03'41 9.6
2014-Oct-10 17:16N 38°48' E 118°56'46 9.6
2014-Oct-10 12:29N 38°42' E 119°54'19 8.6
2014-Oct-10 10:15N 38°40' E 120°18'19 9.0
2014-Oct-10 08:09N 38°38' E 120°42'10 9.5
2014-Oct-10 07:05N 38°36' E 120°55'1710.9
2014-Oct-10 05:33N 38°27' E 121°13'9 9.3
2014-Oct-10 04:34N 38°23' E 121°23'1010.2
2014-Oct-10 03:33N 38°17' E 121°35'1010.0
2014-Oct-10 02:31N 38°12' E 121°46'1010.1
2014-Oct-10 01:33N 38°07' E 121°56'10 9.8
2014-Oct-10 00:32N 38°02' E 122°07'10 9.9
2014-Oct-09 23:34N 37°57' E 122°18'1010.3
2014-Oct-09 22:33N 37°52' E 122°29'1010.3
2014-Oct-09 21:33N 37°44' E 122°38'1110.6
2014-Oct-09 20:33N 37°35' E 122°45'1211.6
2014-Oct-09 19:33N 37°25' E 122°53'1110.9
2014-Oct-09 18:33N 37°14' E 122°52'9 9.1
2014-Oct-09 17:33N 37°05' E 122°52'8 7.9
2014-Oct-09 16:33N 36°57' E 122°52'8 8.1
2014-Oct-09 15:33N 36°49' E 122°52'9 8.7
2014-Oct-09 14:33N 36°40' E 122°52'  
Track history (hours):
 
Tides and Currents Weather Stations Pressure Air Temp Water Temp Dewpoint Dewpoint Depression Visibility Wind Speed Wind Dir Waves Ship Positions

Marvel

Last reported at 2014-Oct-15 11:33 UTC. Time now 2014-Oct-22 06:22 UTC.
Position N 36°42' E 122°49'.

Length 183 m; draft 9.8 m.

Type: Tanker. MMSI: 538003191.

Date/timePositionNaut miles runAvg speedWind from/ knotsBaromVisibWave heightAir tempDewpointWater temp
2014-Oct-15 11:33N 36°42' E 122°49'1010.1
2014-Oct-15 10:33N 36°52' E 122°47'1110.8
2014-Oct-15 09:33N 37°03' E 122°47'1211.6
2014-Oct-15 08:33N 37°15' E 122°47'1211.4
2014-Oct-15 07:28N 37°27' E 122°46'1112.0
2014-Oct-15 06:32N 37°36' E 122°38'1111.3
2014-Oct-15 05:33N 37°45' E 122°30'3810.9
2014-Oct-15 02:03N 38°07' E 121°50'511.1
2014-Oct-15 01:33N 38°09' E 121°44'1111.1
2014-Oct-15 00:33N 38°15' E 121°32'1110.9
2014-Oct-14 23:33N 38°22' E 121°21'15310.8
2014-Oct-14 09:20N 38°51' E 118°08'8 8.5
2014-Oct-14 08:23N 38°53' E 117°58'1011.9
2014-Oct-14 07:33N 38°57' E 117°47'  
2014-Oct-11 09:33N 38°57' E 117°45'4 3.6
2014-Oct-11 08:34N 38°56' E 117°49'9 8.9
2014-Oct-11 07:34N 38°54' E 118°00'0 0.1
2014-Oct-11 05:22N 38°54' E 118°00'0 0.0
2014-Oct-11 04:23N 38°54' E 118°00'0 0.0
2014-Oct-10 23:20N 38°54' E 118°00'2 1.3
2014-Oct-10 21:33N 38°54' E 118°03'41 9.6
2014-Oct-10 17:16N 38°48' E 118°56'46 9.6
2014-Oct-10 12:29N 38°42' E 119°54'19 8.6
2014-Oct-10 10:15N 38°40' E 120°18'19 9.0
2014-Oct-10 08:09N 38°38' E 120°42'10 9.5
2014-Oct-10 07:05N 38°36' E 120°55'1710.9
2014-Oct-10 05:33N 38°27' E 121°13'9 9.3
2014-Oct-10 04:34N 38°23' E 121°23'1010.2
2014-Oct-10 03:33N 38°17' E 121°35'1010.0
2014-Oct-10 02:31N 38°12' E 121°46'1010.1
2014-Oct-10 01:33N 38°07' E 121°56'10 9.8
2014-Oct-10 00:32N 38°02' E 122°07'10 9.9
2014-Oct-09 23:34N 37°57' E 122°18'1010.3
2014-Oct-09 22:33N 37°52' E 122°29'1010.3
2014-Oct-09 21:33N 37°44' E 122°38'1110.6
2014-Oct-09 20:33N 37°35' E 122°45'1211.6
2014-Oct-09 19:33N 37°25' E 122°53'1110.9
2014-Oct-09 18:33N 37°14' E 122°52'9 9.1
2014-Oct-09 17:33N 37°05' E 122°52'8 7.9
2014-Oct-09 16:33N 36°57' E 122°52'8 8.1
2014-Oct-09 15:33N 36°49' E 122°52'9 8.7
2014-Oct-09 14:33N 36°40' E 122°52'  

Dump ship's entire track history